sensor_id;sensor_type;location;lat;lon;timestamp;P1;durP1;ratioP1;P2;durP2;ratioP2
17189;SDS011;8710;49.880;8.272;2022-08-19T00:00:32;16.30;;;14.18;;
17189;SDS011;8710;49.880;8.272;2022-08-19T00:02:59;16.75;;;14.93;;
17189;SDS011;8710;49.880;8.272;2022-08-19T00:05:25;15.87;;;14.03;;
17189;SDS011;8710;49.880;8.272;2022-08-19T00:07:52;17.60;;;15.47;;
17189;SDS011;8710;49.880;8.272;2022-08-19T00:10:21;15.77;;;14.10;;
17189;SDS011;8710;49.880;8.272;2022-08-19T00:12:49;17.80;;;14.93;;
17189;SDS011;8710;49.880;8.272;2022-08-19T00:15:16;17.00;;;14.73;;
17189;SDS011;8710;49.880;8.272;2022-08-19T00:17:45;17.20;;;15.30;;
17189;SDS011;8710;49.880;8.272;2022-08-19T00:20:13;18.93;;;14.80;;
17189;SDS011;8710;49.880;8.272;2022-08-19T00:22:42;17.60;;;15.23;;
17189;SDS011;8710;49.880;8.272;2022-08-19T00:25:10;15.67;;;13.97;;
17189;SDS011;8710;49.880;8.272;2022-08-19T00:27:39;16.03;;;14.33;;
17189;SDS011;8710;49.880;8.272;2022-08-19T00:30:07;16.58;;;14.85;;
17189;SDS011;8710;49.880;8.272;2022-08-19T00:32:35;16.43;;;14.27;;
17189;SDS011;8710;49.880;8.272;2022-08-19T00:35:03;16.07;;;14.37;;
17189;SDS011;8710;49.880;8.272;2022-08-19T00:37:30;17.77;;;14.60;;
17189;SDS011;8710;49.880;8.272;2022-08-19T00:39:58;16.67;;;14.87;;
17189;SDS011;8710;49.880;8.272;2022-08-19T00:42:24;17.87;;;15.07;;
17189;SDS011;8710;49.880;8.272;2022-08-19T00:44:55;19.50;;;16.27;;
17189;SDS011;8710;49.880;8.272;2022-08-19T00:47:22;17.40;;;15.60;;
17189;SDS011;8710;49.880;8.272;2022-08-19T00:49:50;17.90;;;15.88;;
17189;SDS011;8710;49.880;8.272;2022-08-19T00:52:21;18.53;;;15.53;;
17189;SDS011;8710;49.880;8.272;2022-08-19T00:54:49;18.70;;;16.20;;
17189;SDS011;8710;49.880;8.272;2022-08-19T00:57:18;20.03;;;15.47;;
17189;SDS011;8710;49.880;8.272;2022-08-19T00:59:51;18.83;;;15.67;;
17189;SDS011;8710;49.880;8.272;2022-08-19T01:02:21;20.10;;;16.40;;
17189;SDS011;8710;49.880;8.272;2022-08-19T01:04:48;17.87;;;15.97;;
17189;SDS011;8710;49.880;8.272;2022-08-19T01:07:15;18.77;;;16.47;;
17189;SDS011;8710;49.880;8.272;2022-08-19T01:09:43;18.07;;;16.17;;
17189;SDS011;8710;49.880;8.272;2022-08-19T01:12:10;18.83;;;16.43;;
17189;SDS011;8710;49.880;8.272;2022-08-19T01:14:37;19.93;;;16.67;;
17189;SDS011;8710;49.880;8.272;2022-08-19T01:17:06;19.47;;;17.20;;
17189;SDS011;8710;49.880;8.272;2022-08-19T01:19:35;19.40;;;16.33;;
17189;SDS011;8710;49.880;8.272;2022-08-19T01:22:06;20.33;;;16.30;;
17189;SDS011;8710;49.880;8.272;2022-08-19T01:24:39;20.93;;;16.67;;
17189;SDS011;8710;49.880;8.272;2022-08-19T01:27:07;19.13;;;15.53;;
17189;SDS011;8710;49.880;8.272;2022-08-19T01:29:34;17.67;;;15.77;;
17189;SDS011;8710;49.880;8.272;2022-08-19T01:32:04;17.47;;;15.27;;
17189;SDS011;8710;49.880;8.272;2022-08-19T01:34:32;17.63;;;15.27;;
17189;SDS011;8710;49.880;8.272;2022-08-19T01:36:59;16.03;;;14.43;;
17189;SDS011;8710;49.880;8.272;2022-08-19T01:39:33;18.20;;;14.70;;
17189;SDS011;8710;49.880;8.272;2022-08-19T01:42:01;17.17;;;14.43;;
17189;SDS011;8710;49.880;8.272;2022-08-19T01:44:29;17.70;;;14.30;;
17189;SDS011;8710;49.880;8.272;2022-08-19T01:46:56;16.77;;;14.90;;
17189;SDS011;8710;49.880;8.272;2022-08-19T01:49:24;16.67;;;14.83;;
17189;SDS011;8710;49.880;8.272;2022-08-19T01:51:52;17.37;;;14.90;;
17189;SDS011;8710;49.880;8.272;2022-08-19T01:54:21;17.37;;;13.90;;
17189;SDS011;8710;49.880;8.272;2022-08-19T01:56:49;18.17;;;14.97;;
17189;SDS011;8710;49.880;8.272;2022-08-19T01:59:19;16.37;;;14.60;;
17189;SDS011;8710;49.880;8.272;2022-08-19T02:01:48;18.07;;;15.37;;
17189;SDS011;8710;49.880;8.272;2022-08-19T02:04:15;17.17;;;14.60;;
17189;SDS011;8710;49.880;8.272;2022-08-19T02:06:42;17.13;;;14.73;;
17189;SDS011;8710;49.880;8.272;2022-08-19T02:09:09;16.47;;;14.60;;
17189;SDS011;8710;49.880;8.272;2022-08-19T02:11:36;16.73;;;14.93;;
17189;SDS011;8710;49.880;8.272;2022-08-19T02:14:04;19.20;;;15.60;;
17189;SDS011;8710;49.880;8.272;2022-08-19T02:16:35;17.23;;;14.50;;
17189;SDS011;8710;49.880;8.272;2022-08-19T02:19:03;18.43;;;15.73;;
17189;SDS011;8710;49.880;8.272;2022-08-19T02:21:30;18.00;;;15.93;;
17189;SDS011;8710;49.880;8.272;2022-08-19T02:23:58;16.27;;;14.57;;
17189;SDS011;8710;49.880;8.272;2022-08-19T02:26:25;18.67;;;15.90;;
17189;SDS011;8710;49.880;8.272;2022-08-19T02:28:52;18.87;;;16.50;;
17189;SDS011;8710;49.880;8.272;2022-08-19T02:31:21;18.60;;;16.30;;
17189;SDS011;8710;49.880;8.272;2022-08-19T02:33:50;17.73;;;15.83;;
17189;SDS011;8710;49.880;8.272;2022-08-19T02:36:17;18.60;;;15.77;;
17189;SDS011;8710;49.880;8.272;2022-08-19T02:38:44;17.37;;;15.47;;
17189;SDS011;8710;49.880;8.272;2022-08-19T02:41:13;17.40;;;15.13;;
17189;SDS011;8710;49.880;8.272;2022-08-19T02:43:41;18.10;;;16.20;;
17189;SDS011;8710;49.880;8.272;2022-08-19T02:46:12;22.50;;;15.43;;
17189;SDS011;8710;49.880;8.272;2022-08-19T02:48:46;17.07;;;15.27;;
17189;SDS011;8710;49.880;8.272;2022-08-19T02:51:17;17.83;;;15.93;;
17189;SDS011;8710;49.880;8.272;2022-08-19T02:53:45;18.13;;;15.03;;
17189;SDS011;8710;49.880;8.272;2022-08-19T02:56:12;16.47;;;14.27;;
17189;SDS011;8710;49.880;8.272;2022-08-19T02:58:40;16.00;;;14.30;;
17189;SDS011;8710;49.880;8.272;2022-08-19T03:01:08;17.77;;;13.90;;
17189;SDS011;8710;49.880;8.272;2022-08-19T03:03:36;15.90;;;13.60;;
17189;SDS011;8710;49.880;8.272;2022-08-19T03:06:04;16.23;;;13.03;;
17189;SDS011;8710;49.880;8.272;2022-08-19T03:08:34;15.93;;;13.63;;
17189;SDS011;8710;49.880;8.272;2022-08-19T03:11:01;15.37;;;12.37;;
17189;SDS011;8710;49.880;8.272;2022-08-19T03:13:29;13.97;;;12.03;;
17189;SDS011;8710;49.880;8.272;2022-08-19T03:15:56;16.27;;;13.57;;
17189;SDS011;8710;49.880;8.272;2022-08-19T03:18:23;14.07;;;12.60;;
17189;SDS011;8710;49.880;8.272;2022-08-19T03:20:51;13.70;;;12.37;;
17189;SDS011;8710;49.880;8.272;2022-08-19T03:23:19;13.73;;;12.13;;
17189;SDS011;8710;49.880;8.272;2022-08-19T03:25:49;16.33;;;14.67;;
17189;SDS011;8710;49.880;8.272;2022-08-19T03:28:17;15.70;;;12.70;;
17189;SDS011;8710;49.880;8.272;2022-08-19T03:30:54;14.70;;;13.20;;
17189;SDS011;8710;49.880;8.272;2022-08-19T03:33:23;12.57;;;11.13;;
17189;SDS011;8710;49.880;8.272;2022-08-19T03:35:59;13.97;;;11.87;;
17189;SDS011;8710;49.880;8.272;2022-08-19T03:38:27;13.37;;;12.07;;
17189;SDS011;8710;49.880;8.272;2022-08-19T03:40:55;14.63;;;11.90;;
17189;SDS011;8710;49.880;8.272;2022-08-19T03:43:22;14.10;;;12.70;;
17189;SDS011;8710;49.880;8.272;2022-08-19T03:45:58;13.50;;;12.20;;
17189;SDS011;8710;49.880;8.272;2022-08-19T03:48:26;13.37;;;12.07;;
17189;SDS011;8710;49.880;8.272;2022-08-19T03:50:53;13.70;;;12.30;;
17189;SDS011;8710;49.880;8.272;2022-08-19T03:53:19;13.43;;;12.10;;
17189;SDS011;8710;49.880;8.272;2022-08-19T03:55:46;15.63;;;12.13;;
17189;SDS011;8710;49.880;8.272;2022-08-19T03:58:15;12.97;;;11.70;;
17189;SDS011;8710;49.880;8.272;2022-08-19T04:00:41;12.50;;;11.27;;
17189;SDS011;8710;49.880;8.272;2022-08-19T04:03:09;13.90;;;11.73;;
17189;SDS011;8710;49.880;8.272;2022-08-19T04:05:35;14.67;;;12.63;;
17189;SDS011;8710;49.880;8.272;2022-08-19T04:08:03;13.27;;;11.83;;
17189;SDS011;8710;49.880;8.272;2022-08-19T04:10:30;14.20;;;12.80;;
17189;SDS011;8710;49.880;8.272;2022-08-19T04:12:57;14.03;;;12.63;;
17189;SDS011;8710;49.880;8.272;2022-08-19T04:15:25;13.53;;;12.17;;
17189;SDS011;8710;49.880;8.272;2022-08-19T04:17:53;13.70;;;12.23;;
17189;SDS011;8710;49.880;8.272;2022-08-19T04:20:20;14.20;;;12.67;;
17189;SDS011;8710;49.880;8.272;2022-08-19T04:22:47;13.50;;;12.10;;
17189;SDS011;8710;49.880;8.272;2022-08-19T04:25:14;14.47;;;12.13;;
17189;SDS011;8710;49.880;8.272;2022-08-19T04:27:41;15.20;;;13.40;;
17189;SDS011;8710;49.880;8.272;2022-08-19T04:30:11;14.83;;;13.33;;
17189;SDS011;8710;49.880;8.272;2022-08-19T04:32:40;14.93;;;12.80;;
17189;SDS011;8710;49.880;8.272;2022-08-19T04:35:08;14.17;;;12.50;;
17189;SDS011;8710;49.880;8.272;2022-08-19T04:37:35;14.60;;;13.10;;
17189;SDS011;8710;49.880;8.272;2022-08-19T04:40:04;14.67;;;12.93;;
17189;SDS011;8710;49.880;8.272;2022-08-19T04:42:49;15.23;;;12.90;;
17189;SDS011;8710;49.880;8.272;2022-08-19T04:45:16;13.40;;;12.00;;
17189;SDS011;8710;49.880;8.272;2022-08-19T04:47:44;13.90;;;12.37;;
17189;SDS011;8710;49.880;8.272;2022-08-19T04:50:11;15.50;;;12.73;;
17189;SDS011;8710;49.880;8.272;2022-08-19T04:52:39;14.93;;;12.70;;
17189;SDS011;8710;49.880;8.272;2022-08-19T04:55:08;15.50;;;13.13;;
17189;SDS011;8710;49.880;8.272;2022-08-19T04:57:35;13.47;;;11.87;;
17189;SDS011;8710;49.880;8.272;2022-08-19T05:00:04;14.97;;;12.50;;
17189;SDS011;8710;49.880;8.272;2022-08-19T05:02:33;13.30;;;11.70;;
17189;SDS011;8710;49.880;8.272;2022-08-19T05:05:01;15.43;;;12.93;;
17189;SDS011;8710;49.880;8.272;2022-08-19T05:07:28;14.90;;;12.30;;
17189;SDS011;8710;49.880;8.272;2022-08-19T05:09:56;13.57;;;12.10;;
17189;SDS011;8710;49.880;8.272;2022-08-19T05:12:22;16.43;;;12.87;;
17189;SDS011;8710;49.880;8.272;2022-08-19T05:14:49;13.10;;;11.80;;
17189;SDS011;8710;49.880;8.272;2022-08-19T05:17:17;14.67;;;13.03;;
17189;SDS011;8710;49.880;8.272;2022-08-19T05:19:43;13.30;;;12.00;;
17189;SDS011;8710;49.880;8.272;2022-08-19T05:22:29;13.83;;;12.17;;
17189;SDS011;8710;49.880;8.272;2022-08-19T05:25:01;14.03;;;12.53;;
17189;SDS011;8710;49.880;8.272;2022-08-19T05:27:30;13.60;;;12.13;;
17189;SDS011;8710;49.880;8.272;2022-08-19T05:29:57;13.93;;;12.53;;
17189;SDS011;8710;49.880;8.272;2022-08-19T05:32:24;13.83;;;12.43;;
17189;SDS011;8710;49.880;8.272;2022-08-19T05:34:52;16.40;;;12.60;;
17189;SDS011;8710;49.880;8.272;2022-08-19T05:37:19;14.57;;;13.10;;
17189;SDS011;8710;49.880;8.272;2022-08-19T05:39:48;15.97;;;12.90;;
17189;SDS011;8710;49.880;8.272;2022-08-19T05:42:15;15.35;;;13.30;;
17189;SDS011;8710;49.880;8.272;2022-08-19T05:44:45;14.87;;;12.67;;
17189;SDS011;8710;49.880;8.272;2022-08-19T05:47:14;14.68;;;13.20;;
17189;SDS011;8710;49.880;8.272;2022-08-19T05:49:41;15.73;;;13.60;;
17189;SDS011;8710;49.880;8.272;2022-08-19T05:52:10;15.63;;;13.77;;
17189;SDS011;8710;49.880;8.272;2022-08-19T05:54:40;14.47;;;13.03;;
17189;SDS011;8710;49.880;8.272;2022-08-19T05:57:09;17.90;;;14.25;;
17189;SDS011;8710;49.880;8.272;2022-08-19T05:59:36;15.90;;;14.20;;
17189;SDS011;8710;49.880;8.272;2022-08-19T06:02:04;15.07;;;13.37;;
17189;SDS011;8710;49.880;8.272;2022-08-19T06:04:31;15.73;;;13.23;;
17189;SDS011;8710;49.880;8.272;2022-08-19T06:06:58;17.23;;;13.60;;
17189;SDS011;8710;49.880;8.272;2022-08-19T06:09:27;14.88;;;13.27;;
17189;SDS011;8710;49.880;8.272;2022-08-19T06:11:54;15.77;;;12.88;;
17189;SDS011;8710;49.880;8.272;2022-08-19T06:14:26;16.75;;;13.73;;
17189;SDS011;8710;49.880;8.272;2022-08-19T06:16:55;14.63;;;13.23;;
17189;SDS011;8710;49.880;8.272;2022-08-19T06:19:23;15.15;;;13.52;;
17189;SDS011;8710;49.880;8.272;2022-08-19T06:21:51;15.02;;;13.52;;
17189;SDS011;8710;49.880;8.272;2022-08-19T06:24:19;15.52;;;12.75;;
17189;SDS011;8710;49.880;8.272;2022-08-19T06:26:49;14.40;;;12.95;;
17189;SDS011;8710;49.880;8.272;2022-08-19T06:29:19;16.50;;;13.63;;
17189;SDS011;8710;49.880;8.272;2022-08-19T06:31:50;14.27;;;12.50;;
17189;SDS011;8710;49.880;8.272;2022-08-19T06:34:18;14.90;;;13.35;;
17189;SDS011;8710;49.880;8.272;2022-08-19T06:36:46;14.40;;;12.52;;
17189;SDS011;8710;49.880;8.272;2022-08-19T06:39:16;14.18;;;12.73;;
17189;SDS011;8710;49.880;8.272;2022-08-19T06:41:45;14.70;;;13.20;;
17189;SDS011;8710;49.880;8.272;2022-08-19T06:44:13;16.88;;;12.77;;
17189;SDS011;8710;49.880;8.272;2022-08-19T06:46:40;14.20;;;12.38;;
17189;SDS011;8710;49.880;8.272;2022-08-19T06:49:09;17.52;;;12.65;;
17189;SDS011;8710;49.880;8.272;2022-08-19T06:51:39;14.05;;;11.98;;
17189;SDS011;8710;49.880;8.272;2022-08-19T06:54:06;13.07;;;11.73;;
17189;SDS011;8710;49.880;8.272;2022-08-19T06:56:34;12.60;;;11.35;;
17189;SDS011;8710;49.880;8.272;2022-08-19T06:59:01;12.80;;;11.50;;
17189;SDS011;8710;49.880;8.272;2022-08-19T07:01:29;12.45;;;11.25;;
17189;SDS011;8710;49.880;8.272;2022-08-19T07:04:00;12.55;;;11.35;;
17189;SDS011;8710;49.880;8.272;2022-08-19T07:06:28;12.90;;;11.57;;
17189;SDS011;8710;49.880;8.272;2022-08-19T07:08:56;11.35;;;10.15;;
17189;SDS011;8710;49.880;8.272;2022-08-19T07:11:24;10.32;;;9.32;;
17189;SDS011;8710;49.880;8.272;2022-08-19T07:13:51;10.57;;;9.50;;
17189;SDS011;8710;49.880;8.272;2022-08-19T07:16:18;10.90;;;9.77;;
17189;SDS011;8710;49.880;8.272;2022-08-19T07:18:46;11.60;;;9.43;;
17189;SDS011;8710;49.880;8.272;2022-08-19T07:21:14;10.55;;;9.45;;
17189;SDS011;8710;49.880;8.272;2022-08-19T07:23:44;10.23;;;9.20;;
17189;SDS011;8710;49.880;8.272;2022-08-19T07:26:13;12.05;;;9.02;;
17189;SDS011;8710;49.880;8.272;2022-08-19T07:28:42;11.50;;;8.20;;
17189;SDS011;8710;49.880;8.272;2022-08-19T07:31:10;8.85;;;7.72;;
17189;SDS011;8710;49.880;8.272;2022-08-19T07:33:38;9.32;;;8.48;;
17189;SDS011;8710;49.880;8.272;2022-08-19T07:36:06;8.23;;;7.15;;
17189;SDS011;8710;49.880;8.272;2022-08-19T07:38:35;15.30;;;8.65;;
17189;SDS011;8710;49.880;8.272;2022-08-19T07:41:03;9.10;;;8.07;;
17189;SDS011;8710;49.880;8.272;2022-08-19T07:43:30;8.48;;;7.60;;
17189;SDS011;8710;49.880;8.272;2022-08-19T07:45:57;7.72;;;6.72;;
17189;SDS011;8710;49.880;8.272;2022-08-19T07:48:25;8.65;;;7.38;;
17189;SDS011;8710;49.880;8.272;2022-08-19T07:50:53;9.98;;;8.77;;
17189;SDS011;8710;49.880;8.272;2022-08-19T07:53:22;8.85;;;8.05;;
17189;SDS011;8710;49.880;8.272;2022-08-19T07:55:50;7.35;;;6.68;;
17189;SDS011;8710;49.880;8.272;2022-08-19T07:58:20;14.18;;;7.18;;
17189;SDS011;8710;49.880;8.272;2022-08-19T08:00:48;9.38;;;7.45;;
17189;SDS011;8710;49.880;8.272;2022-08-19T08:03:17;8.20;;;7.35;;
17189;SDS011;8710;49.880;8.272;2022-08-19T08:05:46;7.97;;;7.18;;
17189;SDS011;8710;49.880;8.272;2022-08-19T08:08:31;9.52;;;8.00;;
17189;SDS011;8710;49.880;8.272;2022-08-19T08:11:16;8.65;;;7.75;;
17189;SDS011;8710;49.880;8.272;2022-08-19T08:13:47;10.73;;;9.02;;
17189;SDS011;8710;49.880;8.272;2022-08-19T08:16:15;8.90;;;8.10;;
17189;SDS011;8710;49.880;8.272;2022-08-19T08:18:42;9.07;;;8.23;;
17189;SDS011;8710;49.880;8.272;2022-08-19T08:21:10;9.27;;;8.32;;
17189;SDS011;8710;49.880;8.272;2022-08-19T08:23:36;9.25;;;7.50;;
17189;SDS011;8710;49.880;8.272;2022-08-19T08:26:03;7.78;;;7.00;;
17189;SDS011;8710;49.880;8.272;2022-08-19T08:28:30;8.65;;;7.63;;
17189;SDS011;8710;49.880;8.272;2022-08-19T08:30:59;7.38;;;6.68;;
17189;SDS011;8710;49.880;8.272;2022-08-19T08:33:27;7.63;;;7.00;;
17189;SDS011;8710;49.880;8.272;2022-08-19T08:35:56;7.60;;;6.90;;
17189;SDS011;8710;49.880;8.272;2022-08-19T08:38:23;7.10;;;6.43;;
17189;SDS011;8710;49.880;8.272;2022-08-19T08:40:50;8.73;;;7.93;;
17189;SDS011;8710;49.880;8.272;2022-08-19T08:43:23;8.75;;;7.72;;
17189;SDS011;8710;49.880;8.272;2022-08-19T08:45:55;9.32;;;8.52;;
17189;SDS011;8710;49.880;8.272;2022-08-19T08:48:30;9.20;;;8.40;;
17189;SDS011;8710;49.880;8.272;2022-08-19T08:51:02;8.38;;;7.53;;
17189;SDS011;8710;49.880;8.272;2022-08-19T08:53:32;9.32;;;8.52;;
17189;SDS011;8710;49.880;8.272;2022-08-19T08:56:02;10.65;;;9.73;;
17189;SDS011;8710;49.880;8.272;2022-08-19T08:58:35;9.90;;;8.95;;
17189;SDS011;8710;49.880;8.272;2022-08-19T09:01:13;11.18;;;10.07;;
17189;SDS011;8710;49.880;8.272;2022-08-19T09:03:42;10.05;;;9.05;;
17189;SDS011;8710;49.880;8.272;2022-08-19T09:06:12;12.60;;;11.30;;
17189;SDS011;8710;49.880;8.272;2022-08-19T09:08:47;14.05;;;12.38;;
17189;SDS011;8710;49.880;8.272;2022-08-19T09:11:23;25.92;;;12.85;;
17189;SDS011;8710;49.880;8.272;2022-08-19T09:14:02;13.13;;;11.82;;
17189;SDS011;8710;49.880;8.272;2022-08-19T09:16:37;11.93;;;10.88;;
17189;SDS011;8710;49.880;8.272;2022-08-19T09:19:07;9.95;;;9.05;;
17189;SDS011;8710;49.880;8.272;2022-08-19T09:21:36;9.73;;;8.90;;
17189;SDS011;8710;49.880;8.272;2022-08-19T09:24:03;8.63;;;7.80;;
17189;SDS011;8710;49.880;8.272;2022-08-19T09:26:32;9.20;;;8.50;;
17189;SDS011;8710;49.880;8.272;2022-08-19T09:28:59;9.05;;;8.15;;
17189;SDS011;8710;49.880;8.272;2022-08-19T09:31:27;8.80;;;8.00;;
17189;SDS011;8710;49.880;8.272;2022-08-19T09:33:55;8.50;;;7.80;;
17189;SDS011;8710;49.880;8.272;2022-08-19T09:36:24;9.48;;;7.82;;
17189;SDS011;8710;49.880;8.272;2022-08-19T09:38:54;8.48;;;7.80;;
17189;SDS011;8710;49.880;8.272;2022-08-19T09:41:23;8.90;;;8.00;;
17189;SDS011;8710;49.880;8.272;2022-08-19T09:43:52;8.90;;;8.20;;
17189;SDS011;8710;49.880;8.272;2022-08-19T09:46:20;7.65;;;6.90;;
17189;SDS011;8710;49.880;8.272;2022-08-19T09:48:48;6.85;;;6.28;;
17189;SDS011;8710;49.880;8.272;2022-08-19T09:51:17;7.18;;;6.47;;
17189;SDS011;8710;49.880;8.272;2022-08-19T09:53:47;7.03;;;6.47;;
17189;SDS011;8710;49.880;8.272;2022-08-19T09:56:16;6.68;;;6.00;;
17189;SDS011;8710;49.880;8.272;2022-08-19T09:58:44;7.70;;;7.00;;
17189;SDS011;8710;49.880;8.272;2022-08-19T10:01:15;6.82;;;6.22;;
17189;SDS011;8710;49.880;8.272;2022-08-19T10:03:43;6.93;;;6.32;;
17189;SDS011;8710;49.880;8.272;2022-08-19T10:06:13;7.07;;;6.50;;
17189;SDS011;8710;49.880;8.272;2022-08-19T10:08:40;8.45;;;7.72;;
17189;SDS011;8710;49.880;8.272;2022-08-19T10:11:08;8.88;;;8.10;;
17189;SDS011;8710;49.880;8.272;2022-08-19T10:13:35;8.48;;;7.78;;
17189;SDS011;8710;49.880;8.272;2022-08-19T10:16:04;8.68;;;7.88;;
17189;SDS011;8710;49.880;8.272;2022-08-19T10:18:33;8.02;;;7.32;;
17189;SDS011;8710;49.880;8.272;2022-08-19T10:21:04;8.35;;;7.70;;
17189;SDS011;8710;49.880;8.272;2022-08-19T10:23:36;8.13;;;7.53;;
17189;SDS011;8710;49.880;8.272;2022-08-19T10:26:04;7.18;;;6.68;;
17189;SDS011;8710;49.880;8.272;2022-08-19T10:28:34;6.20;;;5.70;;
17189;SDS011;8710;49.880;8.272;2022-08-19T10:31:03;6.55;;;5.72;;
17189;SDS011;8710;49.880;8.272;2022-08-19T10:33:31;6.80;;;6.30;;
17189;SDS011;8710;49.880;8.272;2022-08-19T10:35:59;7.10;;;6.63;;
17189;SDS011;8710;49.880;8.272;2022-08-19T10:38:26;5.80;;;5.32;;
17189;SDS011;8710;49.880;8.272;2022-08-19T10:40:54;6.22;;;5.70;;
17189;SDS011;8710;49.880;8.272;2022-08-19T10:43:21;6.75;;;6.25;;
17189;SDS011;8710;49.880;8.272;2022-08-19T10:45:53;6.55;;;6.10;;
17189;SDS011;8710;49.880;8.272;2022-08-19T10:48:22;5.75;;;5.35;;
17189;SDS011;8710;49.880;8.272;2022-08-19T10:50:49;5.78;;;5.38;;
17189;SDS011;8710;49.880;8.272;2022-08-19T10:53:33;6.20;;;5.63;;
17189;SDS011;8710;49.880;8.272;2022-08-19T10:56:00;6.20;;;5.68;;
17189;SDS011;8710;49.880;8.272;2022-08-19T10:58:44;6.72;;;6.15;;
17189;SDS011;8710;49.880;8.272;2022-08-19T11:01:13;6.30;;;5.90;;
17189;SDS011;8710;49.880;8.272;2022-08-19T11:03:39;6.40;;;5.88;;
17189;SDS011;8710;49.880;8.272;2022-08-19T11:06:07;6.43;;;6.00;;
17189;SDS011;8710;49.880;8.272;2022-08-19T11:08:35;6.57;;;6.07;;
17189;SDS011;8710;49.880;8.272;2022-08-19T11:11:04;7.05;;;6.50;;
17189;SDS011;8710;49.880;8.272;2022-08-19T11:13:33;7.57;;;6.20;;
17189;SDS011;8710;49.880;8.272;2022-08-19T11:16:02;6.10;;;5.60;;
17189;SDS011;8710;49.880;8.272;2022-08-19T11:18:34;6.30;;;5.90;;
17189;SDS011;8710;49.880;8.272;2022-08-19T11:21:06;7.57;;;6.30;;
17189;SDS011;8710;49.880;8.272;2022-08-19T11:23:35;6.70;;;6.20;;
17189;SDS011;8710;49.880;8.272;2022-08-19T11:26:02;6.53;;;5.60;;
17189;SDS011;8710;49.880;8.272;2022-08-19T11:28:29;5.45;;;5.10;;
17189;SDS011;8710;49.880;8.272;2022-08-19T11:30:56;5.47;;;4.93;;
17189;SDS011;8710;49.880;8.272;2022-08-19T11:33:23;6.25;;;5.38;;
17189;SDS011;8710;49.880;8.272;2022-08-19T11:35:52;4.82;;;4.53;;
17189;SDS011;8710;49.880;8.272;2022-08-19T11:38:20;4.95;;;4.22;;
17189;SDS011;8710;49.880;8.272;2022-08-19T11:40:53;4.57;;;4.22;;
17189;SDS011;8710;49.880;8.272;2022-08-19T11:43:21;4.20;;;3.95;;
17189;SDS011;8710;49.880;8.272;2022-08-19T11:45:48;4.07;;;3.78;;
17189;SDS011;8710;49.880;8.272;2022-08-19T11:48:15;4.50;;;4.20;;
17189;SDS011;8710;49.880;8.272;2022-08-19T11:50:46;4.35;;;4.10;;
17189;SDS011;8710;49.880;8.272;2022-08-19T11:53:15;5.13;;;4.72;;
17189;SDS011;8710;49.880;8.272;2022-08-19T11:55:43;4.93;;;4.55;;
17189;SDS011;8710;49.880;8.272;2022-08-19T11:58:10;4.85;;;4.55;;
17189;SDS011;8710;49.880;8.272;2022-08-19T12:00:38;5.10;;;4.70;;
17189;SDS011;8710;49.880;8.272;2022-08-19T12:03:05;4.65;;;4.25;;
17189;SDS011;8710;49.880;8.272;2022-08-19T12:05:32;4.45;;;4.15;;
17189;SDS011;8710;49.880;8.272;2022-08-19T12:07:59;4.38;;;4.07;;
17189;SDS011;8710;49.880;8.272;2022-08-19T12:10:28;5.15;;;4.75;;
17189;SDS011;8710;49.880;8.272;2022-08-19T12:12:55;5.35;;;4.75;;
17189;SDS011;8710;49.880;8.272;2022-08-19T12:15:21;4.97;;;4.60;;
17189;SDS011;8710;49.880;8.272;2022-08-19T12:17:49;5.78;;;4.53;;
17189;SDS011;8710;49.880;8.272;2022-08-19T12:20:17;5.57;;;5.07;;
17189;SDS011;8710;49.880;8.272;2022-08-19T12:22:44;5.50;;;5.15;;
17189;SDS011;8710;49.880;8.272;2022-08-19T12:25:13;5.40;;;5.00;;
17189;SDS011;8710;49.880;8.272;2022-08-19T12:27:42;6.80;;;5.20;;
17189;SDS011;8710;49.880;8.272;2022-08-19T12:30:10;5.70;;;5.30;;
17189;SDS011;8710;49.880;8.272;2022-08-19T12:32:38;5.15;;;4.75;;
17189;SDS011;8710;49.880;8.272;2022-08-19T12:35:06;5.75;;;5.03;;
17189;SDS011;8710;49.880;8.272;2022-08-19T12:37:34;5.68;;;5.18;;
17189;SDS011;8710;49.880;8.272;2022-08-19T12:40:01;5.63;;;5.22;;
17189;SDS011;8710;49.880;8.272;2022-08-19T12:42:29;5.88;;;5.38;;
17189;SDS011;8710;49.880;8.272;2022-08-19T12:44:57;5.80;;;5.30;;
17189;SDS011;8710;49.880;8.272;2022-08-19T12:47:24;5.82;;;5.43;;
17189;SDS011;8710;49.880;8.272;2022-08-19T12:49:52;5.80;;;5.38;;
17189;SDS011;8710;49.880;8.272;2022-08-19T12:52:19;5.85;;;5.45;;
17189;SDS011;8710;49.880;8.272;2022-08-19T12:54:46;5.50;;;5.10;;
17189;SDS011;8710;49.880;8.272;2022-08-19T12:57:13;4.70;;;4.40;;
17189;SDS011;8710;49.880;8.272;2022-08-19T12:59:40;4.70;;;4.30;;
17189;SDS011;8710;49.880;8.272;2022-08-19T13:02:09;4.72;;;4.30;;
17189;SDS011;8710;49.880;8.272;2022-08-19T13:04:36;6.88;;;4.70;;
17189;SDS011;8710;49.880;8.272;2022-08-19T13:07:05;5.18;;;4.82;;
17189;SDS011;8710;49.880;8.272;2022-08-19T13:09:33;4.93;;;4.38;;
17189;SDS011;8710;49.880;8.272;2022-08-19T13:12:01;4.90;;;4.50;;
17189;SDS011;8710;49.880;8.272;2022-08-19T13:14:32;4.75;;;4.45;;
17189;SDS011;8710;49.880;8.272;2022-08-19T13:16:59;4.78;;;4.30;;
17189;SDS011;8710;49.880;8.272;2022-08-19T13:19:28;4.68;;;4.28;;
17189;SDS011;8710;49.880;8.272;2022-08-19T13:21:55;6.25;;;4.05;;
17189;SDS011;8710;49.880;8.272;2022-08-19T13:24:23;5.45;;;4.50;;
17189;SDS011;8710;49.880;8.272;2022-08-19T13:26:50;4.30;;;4.00;;
17189;SDS011;8710;49.880;8.272;2022-08-19T13:29:17;5.18;;;3.80;;
17189;SDS011;8710;49.880;8.272;2022-08-19T13:32:01;4.70;;;3.53;;
17189;SDS011;8710;49.880;8.272;2022-08-19T13:34:47;3.55;;;3.20;;
17189;SDS011;8710;49.880;8.272;2022-08-19T13:37:14;3.95;;;3.65;;
17189;SDS011;8710;49.880;8.272;2022-08-19T13:40:01;4.20;;;3.90;;
17189;SDS011;8710;49.880;8.272;2022-08-19T13:42:28;3.90;;;3.60;;
17189;SDS011;8710;49.880;8.272;2022-08-19T13:44:56;3.53;;;3.22;;
17189;SDS011;8710;49.880;8.272;2022-08-19T13:47:23;3.17;;;2.97;;
17189;SDS011;8710;49.880;8.272;2022-08-19T13:49:51;3.75;;;3.25;;
17189;SDS011;8710;49.880;8.272;2022-08-19T13:52:18;3.58;;;3.30;;
17189;SDS011;8710;49.880;8.272;2022-08-19T13:54:45;2.83;;;2.60;;
17189;SDS011;8710;49.880;8.272;2022-08-19T13:57:13;2.90;;;2.70;;
17189;SDS011;8710;49.880;8.272;2022-08-19T13:59:40;2.97;;;2.72;;
17189;SDS011;8710;49.880;8.272;2022-08-19T14:02:07;2.90;;;2.65;;
17189;SDS011;8710;49.880;8.272;2022-08-19T14:04:35;2.75;;;2.55;;
17189;SDS011;8710;49.880;8.272;2022-08-19T14:07:04;2.88;;;2.67;;
17189;SDS011;8710;49.880;8.272;2022-08-19T14:09:31;3.25;;;2.85;;
17189;SDS011;8710;49.880;8.272;2022-08-19T14:11:58;4.15;;;3.13;;
17189;SDS011;8710;49.880;8.272;2022-08-19T14:14:25;3.13;;;2.92;;
17189;SDS011;8710;49.880;8.272;2022-08-19T14:16:52;3.47;;;3.17;;
17189;SDS011;8710;49.880;8.272;2022-08-19T14:19:19;3.35;;;3.10;;
17189;SDS011;8710;49.880;8.272;2022-08-19T14:21:46;3.00;;;2.80;;
17189;SDS011;8710;49.880;8.272;2022-08-19T14:24:15;4.25;;;3.05;;
17189;SDS011;8710;49.880;8.272;2022-08-19T14:26:42;3.10;;;2.78;;
17189;SDS011;8710;49.880;8.272;2022-08-19T14:29:09;3.20;;;3.00;;
17189;SDS011;8710;49.880;8.272;2022-08-19T14:31:36;4.32;;;3.00;;
17189;SDS011;8710;49.880;8.272;2022-08-19T14:34:04;4.43;;;3.38;;
17189;SDS011;8710;49.880;8.272;2022-08-19T14:36:32;3.17;;;2.97;;
17189;SDS011;8710;49.880;8.272;2022-08-19T14:38:59;4.13;;;3.00;;
17189;SDS011;8710;49.880;8.272;2022-08-19T14:41:28;3.20;;;3.00;;
17189;SDS011;8710;49.880;8.272;2022-08-19T14:43:55;3.45;;;3.25;;
17189;SDS011;8710;49.880;8.272;2022-08-19T14:46:25;3.90;;;3.33;;
17189;SDS011;8710;49.880;8.272;2022-08-19T14:48:53;3.45;;;3.17;;
17189;SDS011;8710;49.880;8.272;2022-08-19T14:51:21;3.88;;;3.58;;
17189;SDS011;8710;49.880;8.272;2022-08-19T14:53:49;4.40;;;4.00;;
17189;SDS011;8710;49.880;8.272;2022-08-19T14:56:18;4.05;;;3.75;;